Time;durP1;ratioP1;P1;durP2;ratioP2;P2;SDS_P1;SDS_P2;PMS_P1;PMS_P2;Temp;Humidity;BMP_temperature;BMP_pressure;BME280_temperature;BME280_humidity;BME280_pressure;Samples;Min_cycle;Max_cycle;Signal;HPM_P1;HPM_P2
2023/07/16 00:02:09;;;;;;;0.70;0.50;;;20.70;99.90;;;;;;5075415;28;20427;-59
2023/07/16 00:04:36;;;;;;;0.60;0.40;;;20.70;99.90;;;;;;5075129;28;20497;-59
2023/07/16 00:07:03;;;;;;;0.63;0.40;;;20.70;99.90;;;;;;5074835;28;20427;-58
2023/07/16 00:09:30;;;;;;;1.85;0.50;;;20.80;99.90;;;;;;5073133;28;20501;-58
2023/07/16 00:11:59;;;;;;;0.90;0.40;;;21.00;99.90;;;;;;5074902;28;20423;-58
2023/07/16 00:14:26;;;;;;;0.60;0.50;;;21.10;99.90;;;;;;5073597;28;20420;-59
2023/07/16 00:16:53;;;;;;;0.70;0.40;;;20.70;99.90;;;;;;5074343;28;20484;-58
2023/07/16 00:19:20;;;;;;;0.60;0.40;;;20.70;99.90;;;;;;5074118;28;20762;-58
2023/07/16 00:21:47;;;;;;;0.90;0.40;;;20.70;99.90;;;;;;5073447;28;20427;-58
2023/07/16 00:24:14;;;;;;;0.60;0.30;;;20.50;99.90;;;;;;5074182;28;20431;-58
2023/07/16 00:26:41;;;;;;;0.60;0.40;;;20.50;99.90;;;;;;5074321;28;20419;-58
2023/07/16 00:29:10;;;;;;;0.50;0.30;;;20.50;99.90;;;;;;5074839;28;20435;-58
2023/07/16 00:31:37;;;;;;;0.50;0.40;;;20.40;99.90;;;;;;5075961;28;20423;-58
2023/07/16 00:34:04;;;;;;;0.60;0.40;;;20.50;99.90;;;;;;5074436;28;20423;-58
2023/07/16 00:36:31;;;;;;;0.55;0.30;;;20.50;99.90;;;;;;5075018;28;20427;-58
2023/07/16 00:38:58;;;;;;;0.50;0.30;;;20.60;99.90;;;;;;5075043;28;20415;-58
2023/07/16 00:41:25;;;;;;;0.70;0.40;;;20.50;99.90;;;;;;5074992;28;20878;-58
2023/07/16 00:43:54;;;;;;;0.50;0.40;;;20.60;99.90;;;;;;5075170;28;20484;-56
2023/07/16 00:46:23;;;;;;;0.93;0.38;;;20.60;99.90;;;;;;5075104;28;20462;-58
2023/07/16 00:48:50;;;;;;;0.40;0.30;;;20.50;99.90;;;;;;5073477;28;20436;-57
2023/07/16 00:51:18;;;;;;;0.80;0.30;;;20.50;99.90;;;;;;5074402;28;20431;-58
2023/07/16 00:53:46;;;;;;;0.50;0.30;;;20.40;99.90;;;;;;5074321;28;20896;-59
2023/07/16 00:56:17;;;;;;;0.60;0.30;;;20.30;99.90;;;;;;5073686;28;20705;-58
2023/07/16 00:58:44;;;;;;;0.80;0.30;;;20.20;99.90;;;;;;5073633;28;20610;-58
2023/07/16 01:01:11;;;;;;;0.50;0.30;;;20.20;99.90;;;;;;5073698;28;20423;-58
2023/07/16 01:03:40;;;;;;;1.30;0.40;;;20.20;99.90;;;;;;5071500;28;20435;-58
2023/07/16 01:06:12;;;;;;;1.10;0.40;;;20.30;99.90;;;;;;5071336;28;20526;-58
2023/07/16 01:08:42;;;;;;;0.50;0.35;;;20.30;99.90;;;;;;5070968;28;20423;-58
2023/07/16 01:11:10;;;;;;;0.80;0.40;;;20.20;99.90;;;;;;5072210;28;20412;-58
2023/07/16 01:13:37;;;;;;;0.70;0.40;;;20.20;99.90;;;;;;5072276;28;20427;-58
2023/07/16 01:16:05;;;;;;;0.70;0.40;;;20.20;99.90;;;;;;5071740;28;20766;-59
2023/07/16 01:18:32;;;;;;;0.50;0.30;;;20.20;99.90;;;;;;5073867;28;20516;-58
2023/07/16 01:21:00;;;;;;;1.00;0.40;;;20.30;99.90;;;;;;5074467;28;21389;-58
2023/07/16 01:23:48;;;;;;;0.80;0.30;;;20.40;99.90;;;;;;5074000;28;20489;-58
2023/07/16 01:26:35;;;;;;;0.50;0.30;;;20.50;99.90;;;;;;5073465;28;20419;-59
2023/07/16 01:29:29;;;;;;;0.50;0.30;;;20.60;99.90;;;;;;5073305;28;20481;-58
2023/07/16 01:31:57;;;;;;;0.70;0.30;;;20.70;99.90;;;;;;5072407;28;20435;-57
2023/07/16 01:34:26;;;;;;;0.80;0.30;;;20.70;99.90;;;;;;5072607;28;20459;-58
2023/07/16 01:36:53;;;;;;;0.50;0.30;;;20.60;99.90;;;;;;5072725;28;20500;-58
2023/07/16 01:39:20;;;;;;;0.50;0.30;;;20.50;99.90;;;;;;5073883;28;20428;-58
2023/07/16 01:41:47;;;;;;;0.50;0.30;;;20.50;99.90;;;;;;5074368;28;20723;-57
2023/07/16 01:44:14;;;;;;;0.50;0.25;;;20.40;99.90;;;;;;5073172;28;20431;-57
2023/07/16 01:46:43;;;;;;;0.50;0.30;;;20.30;99.90;;;;;;5074162;28;20431;-56
2023/07/16 01:49:10;;;;;;;0.40;0.20;;;20.30;99.90;;;;;;5072604;28;20485;-58
2023/07/16 01:51:37;;;;;;;0.40;0.30;;;20.40;99.90;;;;;;5073345;28;20889;-57
2023/07/16 01:54:04;;;;;;;0.40;0.20;;;20.30;99.90;;;;;;5074207;28;21055;-58
2023/07/16 01:56:31;;;;;;;0.40;0.27;;;20.20;99.90;;;;;;5072274;28;20477;-58
2023/07/16 01:58:58;;;;;;;0.45;0.30;;;20.30;99.90;;;;;;5072059;28;20633;-58
2023/07/16 02:01:25;;;;;;;0.77;0.30;;;20.30;99.90;;;;;;5072339;28;20427;-57
2023/07/16 02:03:53;;;;;;;0.50;0.30;;;20.20;99.90;;;;;;5073201;28;20839;-58
2023/07/16 02:06:20;;;;;;;0.50;0.30;;;20.20;99.90;;;;;;5073260;28;20492;-57
2023/07/16 02:08:47;;;;;;;0.77;0.30;;;20.40;99.90;;;;;;5073362;28;20423;-58
2023/07/16 02:11:14;;;;;;;0.50;0.30;;;20.50;99.90;;;;;;5074268;28;20778;-58
2023/07/16 02:13:42;;;;;;;1.10;0.30;;;20.40;99.90;;;;;;5074614;28;20435;-58
2023/07/16 02:16:09;;;;;;;0.80;0.30;;;20.30;99.90;;;;;;5073853;28;20488;-58
2023/07/16 02:18:36;;;;;;;0.85;0.20;;;20.20;99.90;;;;;;5072271;28;20430;-58
2023/07/16 02:21:04;;;;;;;0.40;0.20;;;20.20;99.90;;;;;;5073262;28;20879;-58
2023/07/16 02:23:31;;;;;;;0.50;0.28;;;20.10;99.90;;;;;;5071782;28;20426;-58
2023/07/16 02:25:58;;;;;;;0.60;0.20;;;20.20;99.90;;;;;;5073820;28;20855;-58
2023/07/16 02:28:25;;;;;;;0.60;0.30;;;20.20;99.90;;;;;;5076500;28;20432;-58
2023/07/16 02:30:52;;;;;;;0.57;0.30;;;20.30;99.90;;;;;;5076523;28;20789;-57
2023/07/16 02:33:19;;;;;;;0.50;0.30;;;20.30;99.90;;;;;;5078438;28;20427;-57
2023/07/16 02:35:48;;;;;;;0.50;0.30;;;20.30;99.90;;;;;;5077761;28;20477;-56
2023/07/16 02:38:17;;;;;;;2.40;0.30;;;20.20;99.90;;;;;;5077455;28;20447;-56
2023/07/16 02:40:45;;;;;;;0.40;0.30;;;20.10;99.90;;;;;;5076952;28;20500;-58
2023/07/16 02:43:12;;;;;;;0.80;0.30;;;20.20;99.90;;;;;;5076569;28;20463;-55
2023/07/16 02:45:40;;;;;;;0.70;0.30;;;20.40;99.90;;;;;;5076863;28;20434;-54
2023/07/16 02:48:07;;;;;;;0.50;0.30;;;20.50;99.90;;;;;;5077411;28;20496;-57
2023/07/16 02:50:35;;;;;;;0.50;0.30;;;20.30;99.90;;;;;;5076611;28;20438;-57
2023/07/16 02:53:02;;;;;;;0.40;0.30;;;20.10;99.90;;;;;;5075757;28;20913;-55
2023/07/16 02:55:31;;;;;;;0.40;0.20;;;19.80;99.90;;;;;;5075282;28;20477;-54
2023/07/16 02:57:58;;;;;;;0.50;0.30;;;19.70;99.90;;;;;;5076050;28;20505;-57
2023/07/16 03:00:25;;;;;;;1.00;0.30;;;19.60;99.90;;;;;;5076079;28;20426;-57
2023/07/16 03:02:52;;;;;;;0.50;0.30;;;19.30;99.90;;;;;;5073781;28;20420;-57
2023/07/16 03:05:19;;;;;;;0.80;0.30;;;19.30;99.90;;;;;;5073425;28;20419;-57
2023/07/16 03:07:46;;;;;;;0.60;0.30;;;19.20;99.90;;;;;;5074279;28;20431;-57
2023/07/16 03:10:13;;;;;;;0.50;0.20;;;19.10;99.90;;;;;;5074473;28;20902;-56
2023/07/16 03:12:41;;;;;;;0.60;0.30;;;19.10;99.90;;;;;;5074646;28;20477;-57
2023/07/16 03:15:10;;;;;;;0.50;0.30;;;19.00;99.90;;;;;;5074625;28;20435;-58
2023/07/16 03:17:37;;;;;;;0.70;0.30;;;19.10;99.90;;;;;;5075540;28;20423;-57
2023/07/16 03:20:05;;;;;;;1.73;0.30;;;19.00;99.90;;;;;;5076503;28;20423;-56
2023/07/16 03:22:32;;;;;;;1.20;0.30;;;19.00;99.90;;;;;;5076609;28;20466;-57
2023/07/16 03:24:59;;;;;;;0.60;0.30;;;19.00;99.90;;;;;;5076681;28;20435;-55
2023/07/16 03:27:26;;;;;;;0.50;0.30;;;18.90;99.90;;;;;;5074442;28;20625;-55
2023/07/16 03:29:55;;;;;;;1.20;0.22;;;18.90;99.90;;;;;;5076580;28;20431;-57
2023/07/16 03:32:22;;;;;;;0.50;0.30;;;18.80;99.90;;;;;;5076902;28;20897;-57
2023/07/16 03:34:49;;;;;;;0.90;0.40;;;18.80;99.90;;;;;;5076262;28;20423;-57
2023/07/16 03:37:16;;;;;;;0.65;0.32;;;18.70;99.90;;;;;;5075264;28;20431;-57
2023/07/16 03:39:43;;;;;;;0.70;0.40;;;18.60;99.90;;;;;;5074254;28;20435;-57
2023/07/16 03:42:10;;;;;;;0.70;0.40;;;18.50;99.90;;;;;;5074887;28;20835;-57
2023/07/16 03:44:37;;;;;;;1.50;0.40;;;18.50;99.90;;;;;;5075157;28;20435;-57
2023/07/16 03:47:05;;;;;;;0.90;0.40;;;18.40;99.90;;;;;;5074955;28;20431;-58
2023/07/16 03:49:32;;;;;;;1.52;0.40;;;18.50;99.90;;;;;;5075789;28;20522;-55
2023/07/16 03:51:59;;;;;;;1.60;0.40;;;18.50;99.90;;;;;;5075651;28;20439;-55
2023/07/16 03:54:26;;;;;;;0.90;0.40;;;18.70;99.90;;;;;;5076126;28;20435;-53
2023/07/16 03:56:53;;;;;;;1.30;0.30;;;18.70;99.90;;;;;;5075803;28;20771;-56
2023/07/16 03:59:20;;;;;;;1.00;0.30;;;18.70;99.90;;;;;;5075883;28;20423;-57
2023/07/16 04:01:47;;;;;;;0.60;0.40;;;18.80;99.90;;;;;;5075815;28;20852;-57
2023/07/16 04:04:15;;;;;;;0.60;0.30;;;18.90;99.90;;;;;;5076678;28;20453;-57
2023/07/16 04:06:42;;;;;;;0.85;0.40;;;18.80;99.90;;;;;;5076678;28;20427;-57
2023/07/16 04:09:09;;;;;;;1.23;0.30;;;18.90;99.90;;;;;;5075474;28;20492;-58
2023/07/16 04:11:36;;;;;;;1.00;0.40;;;19.10;99.90;;;;;;5075819;28;20541;-57
2023/07/16 04:14:03;;;;;;;0.60;0.30;;;19.20;99.90;;;;;;5075182;28;20431;-57
2023/07/16 04:16:30;;;;;;;0.85;0.40;;;19.20;99.90;;;;;;5076310;28;20431;-56
2023/07/16 04:18:57;;;;;;;0.90;0.30;;;19.10;99.90;;;;;;5074849;28;20454;-57
2023/07/16 04:21:26;;;;;;;0.50;0.30;;;19.00;99.90;;;;;;5075591;28;20424;-57
2023/07/16 04:23:53;;;;;;;2.10;0.40;;;19.10;99.90;;;;;;5074517;28;20493;-56
2023/07/16 04:26:20;;;;;;;1.00;0.30;;;19.10;99.90;;;;;;5075546;28;20476;-57
2023/07/16 04:28:46;;;;;;;0.52;0.30;;;19.00;99.90;;;;;;5075511;28;20485;-54
2023/07/16 04:31:13;;;;;;;0.70;0.45;;;19.00;99.90;;;;;;5075009;28;20508;-54
2023/07/16 04:33:40;;;;;;;0.55;0.30;;;18.90;99.90;;;;;;5075185;28;20423;-57
2023/07/16 04:36:07;;;;;;;0.63;0.40;;;18.80;99.90;;;;;;5075589;28;20427;-56
2023/07/16 04:38:36;;;;;;;1.70;0.30;;;18.70;99.90;;;;;;5075101;28;20424;-55
2023/07/16 04:41:03;;;;;;;0.70;0.40;;;18.70;99.90;;;;;;5075214;28;20423;-57
2023/07/16 04:43:30;;;;;;;0.90;0.50;;;18.60;99.90;;;;;;5075473;28;20431;-56
2023/07/16 04:45:57;;;;;;;1.10;0.40;;;18.60;99.90;;;;;;5073727;28;20431;-56
2023/07/16 04:48:24;;;;;;;1.50;0.30;;;18.60;99.90;;;;;;5073362;28;20738;-57
2023/07/16 04:50:52;;;;;;;0.80;0.40;;;18.60;99.90;;;;;;5072665;28;20432;-57
2023/07/16 04:53:19;;;;;;;0.60;0.30;;;18.70;99.90;;;;;;5073141;28;20415;-55
2023/07/16 04:55:47;;;;;;;0.90;0.73;;;18.70;99.90;;;;;;5073110;28;20489;-56
2023/07/16 04:58:15;;;;;;;1.35;0.30;;;18.80;99.90;;;;;;5073296;28;20507;-57
2023/07/16 05:00:42;;;;;;;0.70;0.37;;;18.90;99.90;;;;;;5072831;28;20486;-56
2023/07/16 05:03:09;;;;;;;1.20;0.40;;;18.90;99.90;;;;;;5073623;28;20847;-57
2023/07/16 05:05:36;;;;;;;0.73;0.40;;;19.00;99.90;;;;;;5073927;28;20418;-57
2023/07/16 05:08:03;;;;;;;1.10;0.30;;;19.00;99.90;;;;;;5074271;28;20428;-56
2023/07/16 05:10:30;;;;;;;0.70;0.30;;;19.00;99.90;;;;;;5074519;28;20863;-54
2023/07/16 05:12:58;;;;;;;1.20;0.40;;;19.00;99.90;;;;;;5075013;28;20505;-55
2023/07/16 05:15:25;;;;;;;0.60;0.30;;;19.10;99.90;;;;;;5075187;28;20423;-56
2023/07/16 05:17:52;;;;;;;0.57;0.30;;;19.20;99.90;;;;;;5074149;28;20423;-60
2023/07/16 05:20:20;;;;;;;1.33;0.40;;;19.30;99.90;;;;;;5074109;28;20484;-57
2023/07/16 05:22:47;;;;;;;0.60;0.30;;;19.30;99.90;;;;;;5074078;28;20427;-57
2023/07/16 05:25:14;;;;;;;1.35;0.40;;;19.30;99.90;;;;;;5074466;28;20436;-54
2023/07/16 05:27:41;;;;;;;0.70;0.40;;;19.20;99.90;;;;;;5074479;28;20785;-57
2023/07/16 05:30:11;;;;;;;1.10;0.30;;;19.30;99.90;;;;;;5074068;28;20500;-57
2023/07/16 05:32:38;;;;;;;1.25;0.40;;;19.30;99.90;;;;;;5072695;28;20419;-57
2023/07/16 05:35:06;;;;;;;0.70;0.40;;;19.30;99.90;;;;;;5074575;28;20435;-56
2023/07/16 05:37:33;;;;;;;0.50;0.30;;;19.30;99.90;;;;;;5073904;28;20492;-57
2023/07/16 05:40:00;;;;;;;1.50;0.40;;;19.40;99.90;;;;;;5074222;28;20431;-57
2023/07/16 05:42:27;;;;;;;1.10;0.30;;;19.50;99.90;;;;;;5074058;28;20888;-57
2023/07/16 05:44:54;;;;;;;0.80;0.50;;;19.60;99.90;;;;;;5074186;28;20473;-58
2023/07/16 05:47:22;;;;;;;2.22;0.40;;;19.50;99.90;;;;;;5074183;28;20419;-58
2023/07/16 05:49:49;;;;;;;0.90;0.50;;;19.30;99.90;;;;;;5074048;28;20456;-59
2023/07/16 05:52:16;;;;;;;0.50;0.30;;;19.30;99.90;;;;;;5074116;28;20436;-59
2023/07/16 05:54:44;;;;;;;1.77;0.40;;;19.60;99.90;;;;;;5074895;28;20501;-58
2023/07/16 05:57:11;;;;;;;1.00;0.30;;;19.60;99.90;;;;;;5074578;28;20538;-58
2023/07/16 05:59:38;;;;;;;1.10;0.32;;;19.70;99.90;;;;;;5074359;28;20419;-59
2023/07/16 06:02:06;;;;;;;0.60;0.40;;;19.70;99.90;;;;;;5075758;28;20431;-58
2023/07/16 06:04:35;;;;;;;0.50;0.30;;;19.60;99.90;;;;;;5077558;28;20477;-58
2023/07/16 06:07:03;;;;;;;1.70;0.40;;;19.40;99.90;;;;;;5078366;28;20456;-58
2023/07/16 06:09:30;;;;;;;2.20;0.40;;;19.40;99.90;;;;;;5077622;28;20511;-58
2023/07/16 06:11:57;;;;;;;0.60;0.40;;;19.40;99.90;;;;;;5078183;28;20774;-59
2023/07/16 06:14:24;;;;;;;0.68;0.40;;;19.60;99.90;;;;;;5078154;28;20486;-59
2023/07/16 06:16:52;;;;;;;0.70;0.30;;;19.60;99.90;;;;;;5077365;28;20436;-58
2023/07/16 06:19:19;;;;;;;1.83;0.40;;;19.50;99.90;;;;;;5077306;28;20427;-58
2023/07/16 06:21:47;;;;;;;0.80;0.40;;;19.40;99.90;;;;;;5076757;28;20862;-58
2023/07/16 06:24:14;;;;;;;0.80;0.50;;;19.30;99.90;;;;;;5076872;28;20843;-57
2023/07/16 06:26:41;;;;;;;1.20;0.40;;;19.40;99.90;;;;;;5077579;28;20419;-59
2023/07/16 06:29:08;;;;;;;0.68;0.40;;;19.50;99.90;;;;;;5077097;28;20432;-59
2023/07/16 06:31:36;;;;;;;1.52;0.40;;;19.60;99.90;;;;;;5075980;28;20485;-59
2023/07/16 06:34:03;;;;;;;0.65;0.40;;;19.50;99.90;;;;;;5075407;28;20427;-59
2023/07/16 06:36:30;;;;;;;1.30;0.40;;;19.50;99.90;;;;;;5075275;28;20435;-58
2023/07/16 06:39:00;;;;;;;1.00;0.40;;;19.50;99.90;;;;;;5074758;28;20431;-57
2023/07/16 06:41:27;;;;;;;1.10;0.40;;;19.60;99.90;;;;;;5075775;28;20435;-58
2023/07/16 06:43:54;;;;;;;0.60;0.40;;;19.70;99.90;;;;;;5075206;28;20529;-58
2023/07/16 06:46:21;;;;;;;1.40;0.50;;;19.80;99.90;;;;;;5076248;28;20431;-58
2023/07/16 06:48:48;;;;;;;1.48;0.50;;;19.90;99.90;;;;;;5077509;28;20427;-58
2023/07/16 06:51:15;;;;;;;1.38;0.40;;;20.00;99.90;;;;;;5077485;28;20441;-58
2023/07/16 06:53:42;;;;;;;0.70;0.40;;;20.00;99.90;;;;;;5077557;28;20469;-59
2023/07/16 06:56:10;;;;;;;0.98;0.30;;;20.10;99.90;;;;;;5078038;28;20435;-58
2023/07/16 06:58:37;;;;;;;0.60;0.40;;;20.20;99.90;;;;;;5077450;28;20431;-59
2023/07/16 07:01:05;;;;;;;1.10;0.40;;;20.10;99.90;;;;;;5076630;28;20430;-58
2023/07/16 07:03:33;;;;;;;0.60;0.40;;;20.10;99.90;;;;;;5075935;28;20663;-58
2023/07/16 07:06:02;;;;;;;1.30;0.30;;;20.10;99.90;;;;;;5076471;28;20424;-58
2023/07/16 07:08:29;;;;;;;1.38;0.40;;;20.10;99.90;;;;;;5075560;28;20430;-58
2023/07/16 07:10:56;;;;;;;2.50;1.10;;;20.20;99.90;;;;;;5076568;28;20863;-58
2023/07/16 07:13:25;;;;;;;0.77;0.40;;;20.30;99.90;;;;;;5075941;28;20485;-58
2023/07/16 07:15:52;;;;;;;0.90;0.30;;;20.20;99.20;;;;;;5076475;28;20773;-58
2023/07/16 07:18:19;;;;;;;0.70;0.40;;;20.00;88.90;;;;;;5076737;28;20497;-58
2023/07/16 07:20:48;;;;;;;1.27;0.40;;;20.00;99.90;;;;;;5076858;28;20493;-58
2023/07/16 07:23:16;;;;;;;0.60;0.38;;;20.10;99.90;;;;;;5076708;28;20792;-57
2023/07/16 07:25:43;;;;;;;0.70;0.43;;;20.20;70.50;;;;;;5076096;28;20434;-57
2023/07/16 07:28:10;;;;;;;1.80;0.50;;;20.20;41.30;;;;;;5075376;28;20463;-58
2023/07/16 07:30:39;;;;;;;0.70;0.40;;;20.10;44.30;;;;;;5074639;28;20845;-59
2023/07/16 07:33:06;;;;;;;0.93;0.50;;;20.30;45.10;;;;;;5073536;28;20428;-58
2023/07/16 07:35:33;;;;;;;2.10;0.50;;;20.30;1.00;;;;;;5075413;28;20484;-58
2023/07/16 07:38:00;;;;;;;0.63;0.40;;;20.90;1.00;;;;;;5076127;28;20921;-58
2023/07/16 07:40:27;;;;;;;0.60;0.30;;;21.10;1.00;;;;;;5075912;28;20431;-58
2023/07/16 07:42:54;;;;;;;0.60;0.40;;;21.60;1.00;;;;;;5073601;28;20870;-58
2023/07/16 07:45:21;;;;;;;1.05;0.50;;;21.80;1.00;;;;;;5073208;28;20470;-57
2023/07/16 07:47:50;;;;;;;1.70;0.38;;;21.80;1.00;;;;;;5074731;28;20473;-58
2023/07/16 07:50:17;;;;;;;1.50;0.50;;;21.60;1.00;;;;;;5074840;28;20532;-59
2023/07/16 07:52:44;;;;;;;0.98;0.40;;;21.70;1.00;;;;;;5074777;28;20882;-57
2023/07/16 07:55:11;;;;;;;0.80;0.40;;;21.40;1.00;;;;;;5074426;28;20427;-58
2023/07/16 07:57:38;;;;;;;0.68;0.40;;;21.40;1.00;;;;;;5075298;28;20913;-58
2023/07/16 08:00:11;;;;;;;0.85;0.40;;;21.20;1.00;;;;;;5075020;28;20836;-58
2023/07/16 08:02:38;;;;;;;1.30;0.50;;;21.30;1.00;;;;;;5073173;28;20906;-56
2023/07/16 08:05:07;;;;;;;1.15;0.40;;;21.60;1.00;;;;;;5071849;28;20496;-58
2023/07/16 08:07:34;;;;;;;1.00;0.40;;;21.60;1.00;;;;;;5074675;28;20431;-58
2023/07/16 08:10:01;;;;;;;1.10;0.50;;;21.60;1.00;;;;;;5074390;28;20743;-58
2023/07/16 08:12:30;;;;;;;0.80;0.40;;;21.80;1.00;;;;;;5074869;28;20439;-57
2023/07/16 08:14:57;;;;;;;0.88;0.40;;;21.40;1.00;;;;;;5073738;28;20459;-57
2023/07/16 08:17:24;;;;;;;1.90;0.40;;;21.30;1.00;;;;;;5073654;28;20427;-57
2023/07/16 08:19:51;;;;;;;1.13;0.40;;;21.40;1.00;;;;;;5073870;28;20427;-58
2023/07/16 08:22:19;;;;;;;1.60;0.40;;;21.40;1.00;;;;;;5074036;28;20434;-58
2023/07/16 08:24:46;;;;;;;0.90;0.40;;;21.50;1.00;;;;;;5072963;28;20423;-58
2023/07/16 08:27:13;;;;;;;1.02;0.30;;;21.80;1.00;;;;;;5074209;28;20431;-57
2023/07/16 08:29:40;;;;;;;1.10;0.40;;;21.80;99.90;;;;;;5073227;28;20420;-57
2023/07/16 08:32:08;;;;;;;1.30;0.40;;;22.00;1.00;;;;;;5074039;28;20873;-55
2023/07/16 08:34:35;;;;;;;0.98;0.40;;;22.20;1.00;;;;;;5074658;28;20423;-57
2023/07/16 08:37:02;;;;;;;0.70;0.40;;;22.50;99.90;;;;;;5074748;28;20863;-58
2023/07/16 08:39:32;;;;;;;0.70;0.30;;;22.70;99.90;;;;;;5074315;28;20427;-57
2023/07/16 08:42:00;;;;;;;1.00;0.35;;;22.90;1.00;;;;;;5074896;28;20420;-58
2023/07/16 08:44:29;;;;;;;1.38;0.30;;;22.80;1.00;;;;;;5075121;28;20765;-58
2023/07/16 08:46:56;;;;;;;1.40;0.50;;;22.90;1.00;;;;;;5073921;28;20785;-58
2023/07/16 08:49:24;;;;;;;0.90;0.50;;;23.20;1.00;;;;;;5073048;28;20866;-59
2023/07/16 08:51:52;;;;;;;1.10;0.30;;;23.50;1.00;;;;;;5075111;28;20712;-58
2023/07/16 08:54:19;;;;;;;0.82;0.40;;;23.40;1.00;;;;;;5074875;28;20431;-58
2023/07/16 08:56:49;;;;;;;0.80;0.30;;;23.00;1.00;;;;;;5073897;28;20481;-58
2023/07/16 08:59:16;;;;;;;0.70;0.40;;;22.90;1.00;;;;;;5073260;28;20708;-58
2023/07/16 09:01:44;;;;;;;0.93;0.40;;;22.60;1.00;;;;;;5073546;28;20426;-58
2023/07/16 09:04:11;;;;;;;0.70;0.40;;;22.70;1.00;;;;;;5073945;28;20427;-58
2023/07/16 09:06:38;;;;;;;1.60;0.40;;;23.10;1.00;;;;;;5072927;28;20450;-58
2023/07/16 09:09:05;;;;;;;1.17;0.30;;;23.60;99.90;;;;;;5073160;28;20847;-58
2023/07/16 09:11:32;;;;;;;1.10;0.30;;;23.60;99.90;;;;;;5073717;28;20496;-58
2023/07/16 09:14:02;;;;;;;1.52;0.30;;;23.40;99.90;;;;;;5074475;28;20751;-57
2023/07/16 09:16:34;;;;;;;1.20;0.30;;;23.30;99.90;;;;;;5074738;28;20468;-58
2023/07/16 09:19:07;;;;;;;0.80;0.40;;;23.10;99.90;;;;;;5074044;28;20636;-58
2023/07/16 09:21:35;;;;;;;1.35;0.40;;;22.90;99.90;;;;;;5071539;28;20427;-58
2023/07/16 09:24:08;;;;;;;0.60;0.40;;;22.80;99.90;;;;;;5074189;28;20423;-57
2023/07/16 09:26:38;;;;;;;0.60;0.40;;;23.00;99.90;;;;;;5074176;28;20427;-57
2023/07/16 09:29:08;;;;;;;0.63;0.35;;;22.90;97.10;;;;;;5073391;28;20521;-58
2023/07/16 09:31:35;;;;;;;0.50;0.30;;;22.70;49.30;;;;;;5072537;28;20640;-58
2023/07/16 09:34:02;;;;;;;0.50;0.30;;;22.60;99.90;;;;;;5073443;28;20431;-58
2023/07/16 09:36:29;;;;;;;1.20;0.30;;;22.60;99.90;;;;;;5072968;28;20948;-58
2023/07/16 09:38:58;;;;;;;0.50;0.30;;;22.80;99.90;;;;;;5073194;28;20477;-58
2023/07/16 09:41:26;;;;;;;0.80;0.50;;;22.70;1.00;;;;;;5071165;28;20482;-58
2023/07/16 09:43:54;;;;;;;1.20;0.40;;;22.80;21.70;;;;;;5072102;28;20427;-57
2023/07/16 09:46:24;;;;;;;0.80;0.40;;;23.00;60.90;;;;;;5072665;28;20430;-58
2023/07/16 09:48:51;;;;;;;0.60;0.40;;;23.50;1.00;;;;;;5072842;28;20743;-58
2023/07/16 09:51:19;;;;;;;0.60;0.30;;;23.60;1.00;;;;;;5072828;28;20423;-58
2023/07/16 09:53:48;;;;;;;0.60;0.40;;;23.80;1.00;;;;;;5074207;28;20470;-57
2023/07/16 09:56:16;;;;;;;0.68;0.40;;;23.90;1.00;;;;;;5073643;28;20408;-58
2023/07/16 09:58:44;;;;;;;0.60;0.40;;;24.00;1.00;;;;;;5074244;28;20435;-58
2023/07/16 10:01:11;;;;;;;0.70;0.40;;;24.30;1.00;;;;;;5073222;28;20440;-58
2023/07/16 10:03:50;;;;;;;0.80;0.40;;;24.50;1.00;;;;;;5071907;28;20458;-58
2023/07/16 10:06:17;;;;;;;0.60;0.30;;;24.40;1.00;;;;;;5070971;28;20437;-59
2023/07/16 10:08:50;;;;;;;1.20;0.50;;;24.40;1.00;;;;;;5072323;28;20424;-58
2023/07/16 10:11:18;;;;;;;1.25;0.40;;;24.20;1.00;;;;;;5072631;28;20530;-59
2023/07/16 10:13:50;;;;;;;0.70;0.40;;;24.00;1.00;;;;;;5073399;28;20493;-59
2023/07/16 10:16:22;;;;;;;0.75;0.40;;;23.90;1.00;;;;;;5073149;28;20525;-59
2023/07/16 10:18:54;;;;;;;0.80;0.50;;;24.00;1.00;;;;;;5073219;28;20850;-59
2023/07/16 10:21:24;;;;;;;0.60;0.40;;;24.30;1.00;;;;;;5073080;28;20607;-58
2023/07/16 10:23:58;;;;;;;0.60;0.30;;;24.60;1.00;;;;;;5073873;28;20423;-58
2023/07/16 10:26:29;;;;;;;1.10;0.50;;;24.70;1.00;;;;;;5073578;28;20481;-58
2023/07/16 10:28:56;;;;;;;0.57;0.40;;;24.80;1.00;;;;;;5073674;28;20458;-58
2023/07/16 10:31:25;;;;;;;0.60;0.40;;;24.80;1.00;;;;;;5073481;28;20431;-60
2023/07/16 10:34:04;;;;;;;0.90;0.40;;;24.90;1.00;;;;;;5073384;28;20493;-60
2023/07/16 10:36:31;;;;;;;0.90;0.40;;;25.00;1.00;;;;;;5072210;28;20434;-57
2023/07/16 10:39:04;;;;;;;0.68;0.40;;;25.60;1.00;;;;;;5073380;28;20481;-59
2023/07/16 10:41:32;;;;;;;1.48;0.50;;;25.70;1.00;;;;;;5072260;28;20510;-58
2023/07/16 10:43:59;;;;;;;1.90;0.50;;;25.80;1.00;;;;;;5070567;28;20526;-58
2023/07/16 10:46:27;;;;;;;0.60;0.40;;;26.00;1.00;;;;;;5071061;28;20423;-59
2023/07/16 10:48:54;;;;;;;2.05;0.40;;;26.50;1.00;;;;;;5073475;28;20494;-59
2023/07/16 10:51:27;;;;;;;0.60;0.30;;;27.10;1.00;;;;;;5076309;28;20483;-59
2023/07/16 10:53:56;;;;;;;0.80;0.40;;;27.00;1.00;;;;;;5073962;28;20435;-59
2023/07/16 10:56:24;;;;;;;0.70;0.40;;;26.90;1.00;;;;;;5076670;28;20426;-59
2023/07/16 10:58:51;;;;;;;0.70;0.40;;;26.70;1.00;;;;;;5075408;28;20459;-59
2023/07/16 11:01:18;;;;;;;0.80;0.40;;;26.50;1.00;;;;;;5074131;28;20447;-58
2023/07/16 11:03:46;;;;;;;0.70;0.40;;;26.70;1.00;;;;;;5073866;28;20435;-58
2023/07/16 11:06:13;;;;;;;1.00;0.40;;;27.10;1.00;;;;;;5075830;28;20908;-58
2023/07/16 11:08:41;;;;;;;0.90;0.60;;;27.10;1.00;;;;;;5074376;28;20423;-57
2023/07/16 11:11:08;;;;;;;2.40;0.60;;;27.20;1.00;;;;;;5073166;28;20878;-59
2023/07/16 11:13:35;;;;;;;2.35;1.38;;;26.90;1.00;;;;;;5074735;28;20436;-59
2023/07/16 11:16:08;;;;;;;1.40;0.70;;;26.90;1.00;;;;;;5074871;28;20431;-59
2023/07/16 11:18:35;;;;;;;2.40;1.20;;;26.80;1.00;;;;;;5074135;28;20493;-59
2023/07/16 11:21:02;;;;;;;1.92;0.40;;;26.90;1.00;;;;;;5073003;28;20435;-57
2023/07/16 11:23:29;;;;;;;0.70;0.40;;;27.20;1.00;;;;;;5074025;28;20411;-58
2023/07/16 11:25:57;;;;;;;0.70;0.40;;;27.20;1.00;;;;;;5071964;28;20443;-58
2023/07/16 11:28:24;;;;;;;0.90;0.40;;;27.40;1.00;;;;;;5071535;28;20488;-57
2023/07/16 11:30:51;;;;;;;0.60;0.40;;;27.10;1.00;;;;;;5072729;28;20886;-59
2023/07/16 11:33:18;;;;;;;1.73;0.65;;;27.00;1.00;;;;;;5073950;28;20438;-58
2023/07/16 11:35:49;;;;;;;0.70;0.50;;;27.00;1.00;;;;;;5074852;28;20427;-58
2023/07/16 11:38:18;;;;;;;0.70;0.30;;;27.20;1.00;;;;;;5073541;28;20432;-58
2023/07/16 11:40:45;;;;;;;0.70;0.40;;;26.80;1.00;;;;;;5074052;28;20714;-58
2023/07/16 11:43:14;;;;;;;0.63;0.40;;;26.90;1.00;;;;;;5073850;28;20435;-58
2023/07/16 11:45:41;;;;;;;0.80;0.40;;;27.50;1.00;;;;;;5073395;28;20435;-57
2023/07/16 11:48:08;;;;;;;1.60;0.50;;;27.90;1.00;;;;;;5076131;28;20431;-58
2023/07/16 11:50:35;;;;;;;0.70;0.40;;;28.30;1.00;;;;;;5075127;28;20804;-59
2023/07/16 11:53:02;;;;;;;0.70;0.40;;;27.80;1.00;;;;;;5075405;28;20427;-58
2023/07/16 11:55:29;;;;;;;0.60;0.40;;;27.60;1.00;;;;;;5072549;28;20495;-58
2023/07/16 11:57:59;;;;;;;0.50;0.40;;;27.40;1.00;;;;;;5074835;28;20431;-59
2023/07/16 12:00:27;;;;;;;0.70;0.40;;;27.40;1.00;;;;;;5074036;28;20790;-59
2023/07/16 12:02:54;;;;;;;0.80;0.50;;;27.20;1.00;;;;;;5072480;28;20921;-59
2023/07/16 12:05:24;;;;;;;1.20;0.50;;;27.90;1.00;;;;;;5073327;28;20446;-60
2023/07/16 12:07:51;;;;;;;0.70;0.40;;;28.30;1.00;;;;;;5060238;28;20475;-59
2023/07/16 12:10:18;;;;;;;1.03;0.50;;;28.00;1.00;;;;;;5073998;28;20489;-59
2023/07/16 12:12:45;;;;;;;1.10;0.50;;;27.30;1.00;;;;;;5071795;28;20432;-59
2023/07/16 12:15:12;;;;;;;0.90;0.50;;;27.60;1.00;;;;;;5073861;28;20817;-60
2023/07/16 12:17:40;;;;;;;1.30;0.40;;;28.20;1.00;;;;;;5068489;28;20474;-59
2023/07/16 12:20:08;;;;;;;0.60;0.40;;;28.60;1.00;;;;;;5067478;28;20447;-59
2023/07/16 12:22:36;;;;;;;0.70;0.40;;;29.10;1.00;;;;;;5074941;28;20438;-59
2023/07/16 12:25:03;;;;;;;0.70;0.40;;;29.30;1.00;;;;;;5076052;28;20459;-59
2023/07/16 12:27:30;;;;;;;0.70;0.40;;;29.40;1.00;;;;;;5075265;28;20781;-58
2023/07/16 12:29:57;;;;;;;0.90;0.50;;;28.70;1.00;;;;;;5073667;28;20419;-58
2023/07/16 12:32:24;;;;;;;0.90;0.40;;;28.10;1.00;;;;;;5072852;28;20443;-59
2023/07/16 12:34:54;;;;;;;1.00;0.40;;;28.40;1.00;;;;;;5074053;28;20932;-59
2023/07/16 12:37:21;;;;;;;1.00;0.30;;;28.80;1.00;;;;;;5073870;28;20728;-58
2023/07/16 12:39:48;;;;;;;0.80;0.40;;;28.40;1.00;;;;;;5074377;28;20493;-59
2023/07/16 12:42:15;;;;;;;0.60;0.40;;;28.00;1.00;;;;;;5073152;28;20439;-59
2023/07/16 12:44:42;;;;;;;1.10;0.50;;;27.80;1.00;;;;;;5072444;28;20431;-59
2023/07/16 12:47:09;;;;;;;0.65;0.40;;;28.30;1.00;;;;;;5071744;28;20683;-59
2023/07/16 12:49:36;;;;;;;1.00;0.40;;;28.70;1.00;;;;;;5074441;28;20485;-59
2023/07/16 12:52:06;;;;;;;0.75;0.40;;;28.30;1.00;;;;;;5074533;28;20522;-60
2023/07/16 12:54:33;;;;;;;0.60;0.40;;;28.00;1.00;;;;;;5074012;28;20435;-59